Time;durP1;ratioP1;P1;durP2;ratioP2;P2;SDS_P1;SDS_P2;PMS_P1;PMS_P2;Temp;Humidity;BMP_temperature;BMP_pressure;BME280_temperature;BME280_humidity;BME280_pressure;Samples;Min_cycle;Max_cycle;Signal;HPM_P1;HPM_P2
2020/12/01 00:00:24;;;;;;;21.00;15.85;;;7.50;96.80;;;;;;5048318;28;20037;-35
2020/12/01 00:02:50;;;;;;;18.67;14.55;;;7.50;96.80;;;;;;5048665;28;20025;-34
2020/12/01 00:05:18;;;;;;;18.35;14.65;;;7.60;96.80;;;;;;5048136;28;20025;-36
2020/12/01 00:07:43;;;;;;;19.58;15.18;;;7.70;97.00;;;;;;5048889;28;20056;-35
2020/12/01 00:10:12;;;;;;;18.15;13.05;;;7.70;96.90;;;;;;5047617;28;20495;-35
2020/12/01 00:12:43;;;;;;;18.17;13.75;;;7.70;96.90;;;;;;5048345;28;20128;-35
2020/12/01 00:15:14;;;;;;;15.73;12.60;;;7.70;96.80;;;;;;5048653;28;20555;-34
2020/12/01 00:17:40;;;;;;;18.13;14.57;;;7.70;96.80;;;;;;5048237;28;20069;-34
2020/12/01 00:20:07;;;;;;;18.02;13.30;;;7.80;96.80;;;;;;5048601;28;20069;-36
2020/12/01 00:22:33;;;;;;;19.13;14.75;;;7.80;96.70;;;;;;5048488;28;20032;-36
2020/12/01 00:24:59;;;;;;;18.70;14.68;;;7.80;96.70;;;;;;5047951;28;20032;-36
2020/12/01 00:27:25;;;;;;;19.42;14.50;;;7.80;96.70;;;;;;5048134;28;20025;-35
2020/12/01 00:29:50;;;;;;;17.58;13.68;;;7.80;96.70;;;;;;5047960;28;20029;-34
2020/12/01 00:32:16;;;;;;;17.70;13.52;;;7.70;96.70;;;;;;5048125;28;20468;-35
2020/12/01 00:34:42;;;;;;;16.80;13.52;;;7.70;96.70;;;;;;5048146;28;20035;-35
2020/12/01 00:37:07;;;;;;;16.90;13.68;;;7.70;96.70;;;;;;5048272;28;20052;-35
2020/12/01 00:39:33;;;;;;;14.50;11.65;;;7.80;96.80;;;;;;5047647;28;20053;-35
2020/12/01 00:41:58;;;;;;;17.25;13.70;;;7.80;96.80;;;;;;5048514;28;20036;-36
2020/12/01 00:44:24;;;;;;;21.65;14.40;;;7.80;96.80;;;;;;5048501;28;20025;-35
2020/12/01 00:46:50;;;;;;;19.90;15.98;;;7.80;96.80;;;;;;5047529;28;20040;-34
2020/12/01 00:49:16;;;;;;;21.58;15.85;;;7.80;96.80;;;;;;5047962;28;20025;-36
2020/12/01 00:51:42;;;;;;;17.42;13.63;;;7.80;96.70;;;;;;5048258;28;20033;-35
2020/12/01 00:54:07;;;;;;;21.35;17.13;;;7.80;96.80;;;;;;5047430;28;20079;-36
2020/12/01 00:56:33;;;;;;;21.67;17.02;;;7.80;96.70;;;;;;5047758;28;20492;-36
2020/12/01 00:58:58;;;;;;;23.67;16.75;;;7.80;96.80;;;;;;5048522;28;20113;-36
2020/12/01 01:01:26;;;;;;;20.35;15.52;;;7.80;96.80;;;;;;5047388;28;20061;-36
2020/12/01 01:03:55;;;;;;;16.88;13.30;;;7.80;96.90;;;;;;5047812;28;20017;-36
2020/12/01 01:06:20;;;;;;;19.27;12.40;;;7.80;97.60;;;;;;5048216;28;20484;-35
2020/12/01 01:08:46;;;;;;;14.05;10.18;;;7.90;98.10;;;;;;5047424;28;20499;-36
2020/12/01 01:11:11;;;;;;;13.27;9.65;;;7.90;98.00;;;;;;5047942;28;20017;-36
2020/12/01 01:13:38;;;;;;;13.77;9.65;;;7.90;97.80;;;;;;5047499;28;20040;-35
2020/12/01 01:16:04;;;;;;;14.70;9.25;;;8.00;97.90;;;;;;5047784;28;20112;-35
2020/12/01 01:18:29;;;;;;;12.40;8.73;;;8.00;97.70;;;;;;5047588;28;20537;-35
2020/12/01 01:20:55;;;;;;;10.30;7.97;;;8.10;97.60;;;;;;5047443;28;20033;-36
2020/12/01 01:23:21;;;;;;;14.25;8.77;;;8.10;97.50;;;;;;5050508;28;20028;-35
2020/12/01 01:25:46;;;;;;;17.45;9.68;;;8.10;97.40;;;;;;5051333;28;20021;-35
2020/12/01 01:28:12;;;;;;;13.07;8.32;;;8.10;97.60;;;;;;5051320;28;20031;-36
2020/12/01 01:30:40;;;;;;;16.55;9.23;;;8.10;97.60;;;;;;5051331;28;20347;-36
2020/12/01 01:33:07;;;;;;;14.75;8.80;;;8.10;97.50;;;;;;5051926;28;20357;-35
2020/12/01 01:35:34;;;;;;;11.45;7.72;;;8.10;97.50;;;;;;5050876;28;20106;-35
2020/12/01 01:38:02;;;;;;;14.25;6.95;;;8.10;97.40;;;;;;5051734;28;20025;-36
2020/12/01 01:40:29;;;;;;;15.75;7.13;;;8.10;97.40;;;;;;5051178;28;20049;-36
2020/12/01 01:42:55;;;;;;;14.18;6.43;;;8.10;97.40;;;;;;5050790;28;20021;-37
2020/12/01 01:45:38;;;;;;;12.68;6.00;;;8.10;97.40;;;;;;5051315;28;20079;-36
2020/12/01 01:48:41;;;;;;;16.40;6.78;;;8.00;97.40;;;;;;5051643;28;20095;-36
2020/12/01 01:51:16;;;;;;;11.87;5.73;;;7.90;97.70;;;;;;5037905;28;20228;-36
2020/12/01 01:53:46;;;;;;;11.30;4.35;;;7.90;97.60;;;;;;5050780;28;20365;-37
2020/12/01 01:56:16;;;;;;;17.15;6.35;;;7.90;97.40;;;;;;5050631;28;20445;-38
2020/12/01 01:58:42;;;;;;;12.00;3.83;;;7.80;97.40;;;;;;5051232;28;20076;-37
2020/12/01 02:01:11;;;;;;;11.32;3.63;;;7.70;97.30;;;;;;5050792;28;20037;-36
2020/12/01 02:03:46;;;;;;;11.60;3.25;;;7.70;97.50;;;;;;5050630;28;20135;-37
2020/12/01 02:06:22;;;;;;;10.20;2.90;;;7.70;97.50;;;;;;5050914;28;20032;-37
2020/12/01 02:08:51;;;;;;;13.27;3.53;;;7.60;97.50;;;;;;5051006;28;20025;-36
2020/12/01 02:11:20;;;;;;;17.95;3.72;;;7.60;97.60;;;;;;5050606;28;20752;-36
2020/12/01 02:14:05;;;;;;;7.47;2.47;;;7.60;97.50;;;;;;5050634;28;20025;-36
2020/12/01 02:16:32;;;;;;;14.98;3.03;;;7.50;97.40;;;;;;5050592;28;20056;-36
2020/12/01 02:18:57;;;;;;;13.00;2.70;;;7.50;97.50;;;;;;5050482;28;20040;-37
2020/12/01 02:21:37;;;;;;;11.43;2.92;;;7.50;97.50;;;;;;5050256;28;20033;-36
2020/12/01 02:24:05;;;;;;;16.00;2.92;;;7.40;97.50;;;;;;5050445;28;20035;-37
2020/12/01 02:26:31;;;;;;;7.38;2.13;;;7.40;97.50;;;;;;5050292;28;20116;-37
2020/12/01 02:28:57;;;;;;;11.68;2.80;;;7.40;97.50;;;;;;5050896;28;20072;-36
2020/12/01 02:31:23;;;;;;;11.38;2.40;;;7.30;97.50;;;;;;5050235;28;20029;-36
2020/12/01 02:33:49;;;;;;;9.50;2.83;;;7.30;97.50;;;;;;5049760;28;20071;-36
2020/12/01 02:36:15;;;;;;;16.08;2.83;;;7.30;97.50;;;;;;5049999;28;20358;-37
2020/12/01 02:38:41;;;;;;;11.88;3.22;;;7.30;97.50;;;;;;5050393;28;20492;-36
2020/12/01 02:41:07;;;;;;;11.05;2.35;;;7.20;97.50;;;;;;5049702;28;20531;-36
2020/12/01 02:43:32;;;;;;;14.25;2.60;;;7.20;97.50;;;;;;5049939;28;20033;-35
2020/12/01 02:45:58;;;;;;;12.77;2.67;;;7.20;97.50;;;;;;5050044;28;20112;-35
2020/12/01 02:48:24;;;;;;;8.85;1.88;;;7.20;97.50;;;;;;5049861;28;20067;-35
2020/12/01 02:50:49;;;;;;;8.80;2.10;;;7.20;97.50;;;;;;5050030;28;20048;-35
2020/12/01 02:53:15;;;;;;;7.55;2.10;;;7.10;97.60;;;;;;5049274;28;20025;-35
2020/12/01 02:55:40;;;;;;;10.00;2.25;;;7.10;97.60;;;;;;5049863;28;20140;-35
2020/12/01 02:58:06;;;;;;;17.05;2.22;;;7.10;97.70;;;;;;5050484;28;20021;-36
2020/12/01 03:00:33;;;;;;;15.50;2.33;;;7.10;97.70;;;;;;5049273;28;20033;-36
2020/12/01 03:02:59;;;;;;;10.38;2.28;;;7.10;97.70;;;;;;5049964;28;20017;-37
2020/12/01 03:05:24;;;;;;;6.78;1.77;;;7.10;97.70;;;;;;5049522;28;20087;-36
2020/12/01 03:07:50;;;;;;;16.58;2.90;;;7.10;97.70;;;;;;5049262;28;20099;-36
2020/12/01 03:10:15;;;;;;;13.75;2.42;;;7.10;97.70;;;;;;5049506;28;20051;-37
2020/12/01 03:12:41;;;;;;;15.02;2.28;;;7.10;97.70;;;;;;5049577;28;20021;-36
2020/12/01 03:15:10;;;;;;;16.05;2.95;;;7.20;97.80;;;;;;5049610;28;20029;-36
2020/12/01 03:17:36;;;;;;;15.63;1.90;;;7.20;97.80;;;;;;5049379;28;20071;-36
2020/12/01 03:20:02;;;;;;;12.88;2.75;;;7.10;97.70;;;;;;5049396;28;20045;-35
2020/12/01 03:22:28;;;;;;;15.60;2.10;;;7.10;97.60;;;;;;5049176;28;20060;-36
2020/12/01 03:24:53;;;;;;;14.85;2.28;;;7.10;97.60;;;;;;5049683;28;20067;-36
2020/12/01 03:27:19;;;;;;;14.50;2.10;;;7.10;97.60;;;;;;5048984;28;20451;-36
2020/12/01 03:29:44;;;;;;;9.50;1.80;;;7.10;97.60;;;;;;5049621;28;20029;-37
2020/12/01 03:32:10;;;;;;;13.25;2.60;;;7.00;97.60;;;;;;5048982;28;20115;-36
2020/12/01 03:34:35;;;;;;;16.27;2.33;;;7.10;97.70;;;;;;5048697;28;20033;-37
2020/12/01 03:37:01;;;;;;;13.90;2.28;;;7.10;97.60;;;;;;5049497;28;20040;-36
2020/12/01 03:39:26;;;;;;;15.15;2.28;;;7.10;97.60;;;;;;5048811;28;20021;-37
2020/12/01 03:41:52;;;;;;;13.50;1.95;;;7.10;97.60;;;;;;5048713;28;20029;-36
2020/12/01 03:44:17;;;;;;;8.68;1.92;;;7.10;97.70;;;;;;5048827;28;20025;-36
2020/12/01 03:46:43;;;;;;;13.05;1.73;;;7.10;97.70;;;;;;5048492;28;20491;-37
2020/12/01 03:49:08;;;;;;;10.15;1.98;;;7.10;97.80;;;;;;5048498;28;20120;-37
2020/12/01 03:51:34;;;;;;;11.95;1.70;;;7.20;97.90;;;;;;5049040;28;20100;-36
2020/12/01 03:53:59;;;;;;;11.05;2.08;;;7.20;97.90;;;;;;5049140;28;20383;-36
2020/12/01 03:56:25;;;;;;;8.20;1.92;;;7.30;97.90;;;;;;5048881;28;20504;-35
2020/12/01 03:58:50;;;;;;;11.82;1.60;;;7.20;97.80;;;;;;5048621;28;20108;-36
2020/12/01 04:01:16;;;;;;;10.02;1.50;;;7.20;97.80;;;;;;5048453;28;20045;-36
2020/12/01 04:03:41;;;;;;;8.25;1.88;;;7.20;97.80;;;;;;5048396;28;20057;-36
2020/12/01 04:06:07;;;;;;;7.20;1.60;;;7.20;97.90;;;;;;5048348;28;20032;-36
2020/12/01 04:08:32;;;;;;;8.93;1.63;;;7.20;97.90;;;;;;5048687;28;20025;-35
2020/12/01 04:11:01;;;;;;;9.88;1.63;;;7.30;97.90;;;;;;5048251;28;20537;-38
2020/12/01 04:13:27;;;;;;;9.27;1.55;;;7.30;98.00;;;;;;5048557;28;20035;-38
2020/12/01 04:15:52;;;;;;;12.05;2.72;;;7.30;98.20;;;;;;5048373;28;20108;-36
2020/12/01 04:18:18;;;;;;;8.85;1.73;;;7.30;97.90;;;;;;5048339;28;20112;-35
2020/12/01 04:20:43;;;;;;;8.05;1.50;;;7.40;97.90;;;;;;5048470;28;20111;-35
2020/12/01 04:23:09;;;;;;;10.45;1.75;;;7.40;97.90;;;;;;5048209;28;20494;-36
2020/12/01 04:25:34;;;;;;;14.98;1.77;;;7.40;97.90;;;;;;5047945;28;20064;-35
2020/12/01 04:28:00;;;;;;;6.82;1.25;;;7.40;97.90;;;;;;5047798;28;20055;-36
2020/12/01 04:30:25;;;;;;;8.45;1.40;;;7.40;97.90;;;;;;5048024;28;20025;-37
2020/12/01 04:32:52;;;;;;;8.27;1.25;;;7.50;97.90;;;;;;5048040;28;20542;-36
2020/12/01 04:35:20;;;;;;;11.07;1.55;;;7.50;97.90;;;;;;5047934;28;20091;-34
2020/12/01 04:37:46;;;;;;;5.60;1.40;;;7.50;97.90;;;;;;5047817;28;20031;-35
2020/12/01 04:40:16;;;;;;;7.72;1.25;;;7.50;97.90;;;;;;5048096;28;20049;-35
2020/12/01 04:42:51;;;;;;;6.30;1.40;;;7.50;97.80;;;;;;5048260;28;20052;-36
2020/12/01 04:45:17;;;;;;;7.43;1.70;;;7.50;97.80;;;;;;5047811;28;20108;-35
2020/12/01 04:47:57;;;;;;;8.52;1.50;;;7.50;97.80;;;;;;5048243;28;20020;-35
2020/12/01 04:50:44;;;;;;;8.70;2.97;;;7.50;97.70;;;;;;5048581;28;20027;-35
2020/12/01 04:53:37;;;;;;;14.55;2.00;;;7.50;97.70;;;;;;5047498;28;20025;-35
2020/12/01 04:56:38;;;;;;;8.27;1.50;;;7.50;97.70;;;;;;5048918;28;20586;-35
2020/12/01 04:59:13;;;;;;;12.85;1.45;;;7.50;97.70;;;;;;5051738;28;20032;-35
2020/12/01 05:02:15;;;;;;;5.47;1.30;;;7.50;97.70;;;;;;5052316;28;20083;-35
2020/12/01 05:05:09;;;;;;;10.18;1.30;;;7.40;97.70;;;;;;5052129;28;20095;-35
2020/12/01 05:08:13;;;;;;;13.70;1.50;;;7.50;97.80;;;;;;5051779;28;20029;-35
2020/12/01 05:10:43;;;;;;;11.10;1.80;;;7.50;97.70;;;;;;5052163;28;20116;-36
2020/12/01 05:13:22;;;;;;;11.73;1.33;;;7.50;97.70;;;;;;5051436;28;20021;-35
2020/12/01 05:15:53;;;;;;;8.13;1.55;;;7.50;97.70;;;;;;5052114;28;20120;-35
2020/12/01 05:18:23;;;;;;;8.95;1.60;;;7.50;97.70;;;;;;5051607;28;20040;-35
2020/12/01 05:20:56;;;;;;;8.20;1.77;;;7.50;97.70;;;;;;5051111;28;20048;-36
2020/12/01 05:23:40;;;;;;;8.70;1.50;;;7.50;97.70;;;;;;5051566;28;20028;-35
2020/12/01 05:26:12;;;;;;;12.20;1.90;;;7.50;97.70;;;;;;5052415;28;20025;-35
2020/12/01 05:28:50;;;;;;;7.72;1.73;;;7.50;97.60;;;;;;5051209;28;20032;-36
2020/12/01 05:31:18;;;;;;;8.07;1.60;;;7.50;97.70;;;;;;5052329;28;20025;-36
2020/12/01 05:33:57;;;;;;;7.72;1.73;;;7.50;97.70;;;;;;5050903;28;20029;-34
2020/12/01 05:36:29;;;;;;;9.20;2.22;;;7.40;97.70;;;;;;5051708;28;20086;-36
2020/12/01 05:39:13;;;;;;;6.90;1.67;;;7.50;97.70;;;;;;5051796;28;20495;-36
2020/12/01 05:41:40;;;;;;;7.30;1.45;;;7.50;97.70;;;;;;5051175;28;20415;-36
2020/12/01 05:44:15;;;;;;;6.95;1.75;;;7.50;97.70;;;;;;5051598;28;20078;-37
2020/12/01 05:46:59;;;;;;;10.75;2.10;;;7.50;97.70;;;;;;5050945;28;20210;-36
2020/12/01 05:49:43;;;;;;;11.93;1.90;;;7.40;97.70;;;;;;5050386;28;20069;-36
2020/12/01 05:52:27;;;;;;;13.98;2.08;;;7.50;97.70;;;;;;5048690;28;20112;-36
2020/12/01 05:55:15;;;;;;;11.82;1.63;;;7.40;97.70;;;;;;5051087;28;20049;-36
2020/12/01 05:57:42;;;;;;;10.55;1.75;;;7.50;97.70;;;;;;5051272;28;20025;-36
2020/12/01 06:00:23;;;;;;;7.93;2.30;;;7.50;97.70;;;;;;5050846;28;20071;-36
2020/12/01 06:03:11;;;;;;;9.48;2.10;;;7.50;97.70;;;;;;5050539;28;20040;-36
2020/12/01 06:05:39;;;;;;;10.40;1.80;;;7.50;97.70;;;;;;5050967;28;20486;-35
2020/12/01 06:08:19;;;;;;;11.57;2.17;;;7.50;97.70;;;;;;5050140;28;20047;-37
2020/12/01 06:11:03;;;;;;;15.23;1.90;;;7.50;97.70;;;;;;5050391;28;20029;-37
2020/12/01 06:13:41;;;;;;;16.08;3.17;;;7.50;97.90;;;;;;5050658;28;20033;-35
2020/12/01 06:16:07;;;;;;;5.50;2.00;;;7.60;97.70;;;;;;5048953;28;20060;-36
2020/12/01 06:19:04;;;;;;;8.25;2.05;;;7.60;97.60;;;;;;5049314;28;20060;-36
2020/12/01 06:21:47;;;;;;;11.35;2.45;;;7.60;97.60;;;;;;5044694;28;20502;-36
2020/12/01 06:24:22;;;;;;;10.40;2.35;;;7.60;97.60;;;;;;5047013;28;20105;-37
2020/12/01 06:27:00;;;;;;;10.30;2.40;;;7.60;97.60;;;;;;5034162;28;20087;-36
2020/12/01 06:29:43;;;;;;;10.15;2.15;;;7.70;97.60;;;;;;5048783;28;20043;-34
2020/12/01 06:32:33;;;;;;;7.97;2.08;;;7.70;97.60;;;;;;5046125;28;20029;-36
2020/12/01 06:35:20;;;;;;;12.48;2.53;;;7.70;97.60;;;;;;5048211;28;20025;-36
2020/12/01 06:37:51;;;;;;;6.07;2.80;;;7.70;97.60;;;;;;5048891;28;20046;-37
2020/12/01 06:40:26;;;;;;;9.07;2.72;;;7.80;97.60;;;;;;5049659;28;20041;-37
2020/12/01 06:43:09;;;;;;;3.75;2.28;;;7.80;97.60;;;;;;5049167;28;20055;-35
2020/12/01 06:45:43;;;;;;;6.85;3.70;;;7.80;97.60;;;;;;5051857;28;20028;-36
2020/12/01 06:48:21;;;;;;;10.23;4.10;;;7.80;97.70;;;;;;5047302;28;20033;-35
2020/12/01 06:50:56;;;;;;;7.15;4.38;;;7.90;97.70;;;;;;5049753;28;20025;-35
2020/12/01 06:53:32;;;;;;;7.70;4.03;;;7.90;97.70;;;;;;5061232;28;20037;-35
2020/12/01 06:56:20;;;;;;;6.72;4.28;;;7.90;97.70;;;;;;5070000;28;20032;-36
2020/12/01 06:58:48;;;;;;;7.70;4.88;;;7.90;97.60;;;;;;5068344;28;20036;-35
2020/12/01 07:01:22;;;;;;;6.57;4.38;;;8.00;97.70;;;;;;5065689;28;20139;-34
2020/12/01 07:04:17;;;;;;;7.95;4.82;;;8.00;97.60;;;;;;5067730;28;20029;-36
2020/12/01 07:06:54;;;;;;;7.38;4.60;;;8.10;97.70;;;;;;5068079;28;20045;-35
2020/12/01 07:09:42;;;;;;;6.72;4.28;;;8.10;97.60;;;;;;5067371;28;20032;-35
2020/12/01 07:12:28;;;;;;;9.50;4.95;;;8.10;97.60;;;;;;5067520;28;20031;-34
2020/12/01 07:15:06;;;;;;;6.82;4.28;;;8.20;97.80;;;;;;5056284;28;20060;-35
2020/12/01 07:17:45;;;;;;;6.75;4.50;;;8.20;97.70;;;;;;5058983;28;20639;-36
2020/12/01 07:20:13;;;;;;;6.70;4.82;;;8.20;97.70;;;;;;5056081;28;20079;-37
2020/12/01 07:22:39;;;;;;;6.13;4.63;;;8.30;97.70;;;;;;5049664;28;20120;-36
2020/12/01 07:25:14;;;;;;;9.90;5.03;;;8.30;97.60;;;;;;5049902;28;20203;-35
2020/12/01 07:27:45;;;;;;;8.10;4.80;;;8.30;98.00;;;;;;5048996;28;20029;-35
2020/12/01 07:30:20;;;;;;;7.57;4.85;;;8.30;97.80;;;;;;5049578;28;20408;-36
2020/12/01 07:32:58;;;;;;;9.25;4.82;;;8.40;97.80;;;;;;5049520;28;20025;-35
2020/12/01 07:35:46;;;;;;;6.80;4.35;;;8.40;98.00;;;;;;5048482;28;20468;-36
2020/12/01 07:38:36;;;;;;;9.00;4.80;;;8.50;97.80;;;;;;5049074;28;20029;-36
2020/12/01 07:41:23;;;;;;;8.63;4.13;;;8.50;97.70;;;;;;5048867;28;20075;-36
2020/12/01 07:44:05;;;;;;;14.40;5.40;;;8.50;97.80;;;;;;5049436;28;20020;-35
2020/12/01 07:47:06;;;;;;;7.35;3.47;;;8.60;97.80;;;;;;5051477;28;20494;-36
2020/12/01 07:49:27;;;;;;;10.68;3.17;;;8.60;97.80;;;;;;5046430;28;20029;-35
2020/12/01 07:52:04;;;;;;;8.85;2.90;;;8.60;97.80;;;;;;5049220;28;20116;-36
2020/12/01 07:54:31;;;;;;;9.05;2.20;;;8.60;97.90;;;;;;5048646;28;20025;-36
2020/12/01 07:56:57;;;;;;;10.70;2.40;;;8.70;98.00;;;;;;5049172;28;20036;-36
2020/12/01 07:59:22;;;;;;;17.30;2.85;;;8.70;98.00;;;;;;5048723;28;20029;-35
2020/12/01 08:01:48;;;;;;;8.00;2.22;;;8.70;98.00;;;;;;5067342;28;20545;-36
2020/12/01 08:04:20;;;;;;;9.15;2.45;;;8.70;98.00;;;;;;5068532;28;20027;-37
2020/12/01 08:07:03;;;;;;;16.00;2.50;;;8.80;98.00;;;;;;5065792;28;20325;-36
2020/12/01 08:09:31;;;;;;;16.20;2.20;;;8.80;98.00;;;;;;5068440;28;20028;-36
2020/12/01 08:12:10;;;;;;;14.00;2.45;;;8.80;98.00;;;;;;5068357;28;20025;-35
2020/12/01 08:14:36;;;;;;;22.58;3.92;;;8.80;98.00;;;;;;5068976;28;20521;-36
2020/12/01 08:17:12;;;;;;;20.05;3.00;;;8.90;97.90;;;;;;5068163;28;20012;-36
2020/12/01 08:19:38;;;;;;;27.83;3.42;;;8.90;97.80;;;;;;5068495;28;20131;-36
2020/12/01 08:22:06;;;;;;;27.30;5.18;;;8.80;97.80;;;;;;5069073;28;20111;-37
2020/12/01 08:24:36;;;;;;;18.83;3.10;;;8.80;97.80;;;;;;5067904;28;20488;-36
2020/12/01 08:27:17;;;;;;;23.90;3.78;;;8.80;97.80;;;;;;5068720;28;20031;-36
2020/12/01 08:29:45;;;;;;;24.33;4.10;;;8.80;97.80;;;;;;5068218;28;20024;-36
2020/12/01 08:32:32;;;;;;;19.88;3.28;;;8.80;97.80;;;;;;5067788;28;20386;-36
2020/12/01 08:35:12;;;;;;;31.85;4.57;;;8.80;97.80;;;;;;5068268;28;20340;-36
2020/12/01 08:38:11;;;;;;;36.35;4.55;;;8.90;97.90;;;;;;5067806;28;20484;-36
2020/12/01 08:40:46;;;;;;;27.75;4.47;;;8.90;97.80;;;;;;5068217;28;20084;-37
2020/12/01 08:43:48;;;;;;;32.13;4.45;;;8.90;97.80;;;;;;5068149;28;20049;-36
2020/12/01 08:46:28;;;;;;;29.77;4.88;;;8.80;97.80;;;;;;5068299;28;20154;-36
2020/12/01 08:49:23;;;;;;;27.88;4.35;;;8.80;97.70;;;;;;5068005;28;20555;-36
2020/12/01 08:51:56;;;;;;;34.38;4.32;;;8.90;97.70;;;;;;5067977;28;20032;-35
2020/12/01 08:54:31;;;;;;;29.60;4.43;;;8.90;97.60;;;;;;5068204;28;20401;-36
2020/12/01 08:57:08;;;;;;;22.63;3.67;;;8.80;97.60;;;;;;5068391;28;20020;-36
2020/12/01 08:59:43;;;;;;;25.83;4.60;;;8.90;97.70;;;;;;5067611;28;20043;-36
2020/12/01 09:02:10;;;;;;;28.58;4.07;;;8.90;97.70;;;;;;5068236;28;20040;-36
2020/12/01 09:04:37;;;;;;;36.33;4.95;;;8.90;97.60;;;;;;5068092;28;20065;-36
2020/12/01 09:07:07;;;;;;;34.13;4.88;;;8.90;97.70;;;;;;5067956;28;20029;-36
2020/12/01 09:09:33;;;;;;;40.30;5.63;;;8.90;97.50;;;;;;5056312;28;20035;-36
2020/12/01 09:12:18;;;;;;;26.17;4.00;;;8.90;97.60;;;;;;5056874;28;20035;-36
2020/12/01 09:23:18;;;;;;;29.00;4.85;;;8.90;97.50;;;;;;5068233;28;20028;-37
2020/12/01 09:25:45;;;;;;;26.50;4.90;;;8.90;97.50;;;;;;5067799;28;20032;-37
2020/12/01 09:28:36;;;;;;;34.70;5.55;;;8.90;97.50;;;;;;5067514;28;20028;-36
2020/12/01 09:31:04;;;;;;;27.05;5.38;;;8.90;97.30;;;;;;5065261;28;20025;-36
2020/12/01 09:33:31;;;;;;;24.52;4.53;;;8.90;97.30;;;;;;5067247;28;20025;-36
2020/12/01 09:35:57;;;;;;;28.92;5.43;;;9.00;97.50;;;;;;5068247;28;20025;-36
2020/12/01 09:38:23;;;;;;;26.13;5.68;;;8.90;97.40;;;;;;5068063;28;20029;-37
2020/12/01 09:40:51;;;;;;;43.28;5.50;;;9.00;97.40;;;;;;5066912;28;20054;-37
2020/12/01 09:45:47;;;;;;;28.52;5.78;;;9.00;97.20;;;;;;5071589;28;20036;-35
2020/12/01 09:48:18;;;;;;;31.45;5.03;;;9.00;97.20;;;;;;5070756;28;20024;-37
2020/12/01 09:50:44;;;;;;;28.70;5.13;;;9.00;97.30;;;;;;5071235;28;20028;-36
2020/12/01 09:56:07;;;;;;;33.97;4.78;;;9.10;97.00;;;;;;5070821;28;20419;-36
2020/12/01 10:19:40;;;;;;;33.45;5.22;;;9.20;96.60;;;;;;5068225;28;20123;-35
2020/12/01 10:35:20;;;;;;;43.08;5.78;;;9.30;96.20;;;;;;5069962;28;20067;-45
2020/12/01 10:37:46;;;;;;;32.38;5.05;;;9.30;96.10;;;;;;5068983;28;20137;-45
2020/12/01 10:40:11;;;;;;;24.55;4.85;;;9.30;95.90;;;;;;5069097;28;20137;-45
2020/12/01 10:42:37;;;;;;;29.02;5.60;;;9.30;96.00;;;;;;5069901;28;20029;-45
2020/12/01 10:45:03;;;;;;;34.25;5.88;;;9.30;95.60;;;;;;5070154;28;20025;-45
2020/12/01 10:47:29;;;;;;;34.88;5.97;;;9.30;95.60;;;;;;5066994;28;20544;-45
2020/12/01 10:49:54;;;;;;;32.92;5.72;;;9.30;95.70;;;;;;5063904;28;20048;-45
2020/12/01 10:52:20;;;;;;;31.92;4.88;;;9.30;95.70;;;;;;5059898;28;20025;-45
2020/12/01 10:54:45;;;;;;;39.80;5.90;;;9.30;95.60;;;;;;5054830;28;20046;-44
2020/12/01 10:57:11;;;;;;;31.98;4.78;;;9.40;95.60;;;;;;5051968;28;20059;-43
2020/12/01 10:59:36;;;;;;;20.75;3.70;;;9.30;95.60;;;;;;5063785;28;20032;-44
2020/12/01 11:02:02;;;;;;;29.90;4.75;;;9.40;95.60;;;;;;5060667;28;20068;-45
2020/12/01 11:04:28;;;;;;;28.55;4.53;;;9.40;95.60;;;;;;5055856;28;20111;-45
2020/12/01 11:06:53;;;;;;;28.30;3.92;;;9.40;95.10;;;;;;5060979;28;20037;-45
2020/12/01 11:09:19;;;;;;;24.45;4.45;;;9.40;94.90;;;;;;5062970;28;20013;-45
2020/12/01 11:11:44;;;;;;;32.65;4.90;;;9.40;95.00;;;;;;5058426;28;20028;-44
2020/12/01 11:14:10;;;;;;;29.33;5.03;;;9.50;95.10;;;;;;5056493;28;20155;-44
2020/12/01 11:16:36;;;;;;;30.45;4.25;;;9.50;94.70;;;;;;5054990;28;20465;-44
2020/12/01 11:19:03;;;;;;;26.25;4.00;;;9.50;94.80;;;;;;5059985;28;20063;-44
2020/12/01 11:21:29;;;;;;;24.50;3.97;;;9.50;94.50;;;;;;5060920;28;20033;-44
2020/12/01 11:23:54;;;;;;;24.38;3.72;;;9.50;94.60;;;;;;5049003;28;20032;-44
2020/12/01 11:26:20;;;;;;;26.00;3.95;;;9.60;94.50;;;;;;5048112;28;20029;-46
2020/12/01 11:28:48;;;;;;;26.85;3.97;;;9.60;94.40;;;;;;5048316;28;20412;-44
2020/12/01 11:31:15;;;;;;;28.25;5.25;;;9.60;94.30;;;;;;5048336;28;20020;-45
2020/12/01 11:33:40;;;;;;;36.75;4.65;;;9.60;94.20;;;;;;5048713;28;20155;-45
2020/12/01 11:36:06;;;;;;;24.10;4.45;;;9.70;94.20;;;;;;5048613;28;20103;-45
2020/12/01 11:38:32;;;;;;;22.60;4.20;;;9.70;93.90;;;;;;5047953;28;20020;-46
2020/12/01 11:40:57;;;;;;;28.63;4.85;;;9.70;94.00;;;;;;5047876;28;20045;-45
2020/12/01 11:43:23;;;;;;;27.35;4.18;;;9.70;94.10;;;;;;5053562;28;20017;-46
2020/12/01 11:45:49;;;;;;;22.90;4.05;;;9.70;93.70;;;;;;5054534;28;20383;-45
2020/12/01 11:48:14;;;;;;;29.55;3.67;;;9.70;93.90;;;;;;5055153;28;20040;-46
2020/12/01 11:50:40;;;;;;;37.60;4.90;;;9.80;93.70;;;;;;5048225;28;20025;-46
2020/12/01 11:53:05;;;;;;;19.25;3.65;;;9.80;93.80;;;;;;5049046;28;20024;-46
2020/12/01 11:55:31;;;;;;;30.98;5.25;;;9.80;93.60;;;;;;5047296;28;20029;-44
2020/12/01 11:57:56;;;;;;;25.63;4.07;;;9.80;93.80;;;;;;5048986;28;20032;-44
2020/12/01 12:00:25;;;;;;;21.83;3.95;;;9.80;93.30;;;;;;5047026;28;20082;-45
2020/12/01 12:02:50;;;;;;;19.67;4.13;;;9.80;93.50;;;;;;5046846;28;20442;-45
2020/12/01 12:05:17;;;;;;;24.55;3.90;;;9.80;93.40;;;;;;5044748;28;20028;-46
2020/12/01 12:07:42;;;;;;;29.52;4.10;;;9.80;93.40;;;;;;5045779;28;20025;-45
2020/12/01 12:10:08;;;;;;;27.13;5.30;;;9.90;93.30;;;;;;5045958;28;20541;-46
2020/12/01 12:12:33;;;;;;;25.52;4.50;;;9.90;93.30;;;;;;5046505;28;20031;-45
2020/12/01 12:14:59;;;;;;;24.55;3.95;;;9.90;92.90;;;;;;5046546;28;20350;-45
2020/12/01 12:17:25;;;;;;;28.67;4.13;;;9.90;92.90;;;;;;5048276;28;20128;-45
2020/12/01 12:19:53;;;;;;;24.35;3.97;;;9.80;92.90;;;;;;5045866;28;20486;-45
2020/12/01 12:22:19;;;;;;;21.98;3.78;;;9.80;92.80;;;;;;5043562;28;20021;-44
2020/12/01 12:24:44;;;;;;;23.55;4.43;;;9.80;93.10;;;;;;5045497;28;20017;-45
2020/12/01 12:27:10;;;;;;;25.58;4.40;;;9.80;92.90;;;;;;5046185;28;20087;-44
2020/12/01 12:29:35;;;;;;;22.63;4.20;;;9.90;93.00;;;;;;5050893;28;20032;-45
2020/12/01 12:32:01;;;;;;;20.38;3.45;;;9.90;93.00;;;;;;5058194;28;20021;-45
2020/12/01 12:34:26;;;;;;;31.05;4.82;;;9.90;92.80;;;;;;5058151;28;20032;-44
2020/12/01 12:36:53;;;;;;;26.95;4.13;;;9.90;92.60;;;;;;5045934;28;20027;-44
2020/12/01 12:39:19;;;;;;;27.13;4.50;;;9.90;92.40;;;;;;5048927;28;20032;-45
2020/12/01 12:41:44;;;;;;;22.30;3.55;;;10.00;92.50;;;;;;5046615;28;20296;-45
2020/12/01 12:44:10;;;;;;;27.05;5.03;;;10.00;92.30;;;;;;5046431;28;20130;-44
2020/12/01 12:46:37;;;;;;;21.25;3.70;;;10.00;92.30;;;;;;5048137;28;20821;-44
2020/12/01 12:49:03;;;;;;;29.30;4.40;;;10.00;92.40;;;;;;5047130;28;20031;-44
2020/12/01 12:51:29;;;;;;;31.95;4.95;;;10.00;92.50;;;;;;5046514;28;20025;-45
2020/12/01 12:53:54;;;;;;;22.02;3.47;;;10.10;92.40;;;;;;5047590;28;20032;-45
2020/12/01 12:56:22;;;;;;;30.15;4.72;;;10.20;92.30;;;;;;5047121;28;20012;-45
2020/12/01 12:58:48;;;;;;;27.70;3.95;;;10.20;91.70;;;;;;5046353;28;20099;-44
2020/12/01 13:01:13;;;;;;;24.98;5.22;;;10.30;91.50;;;;;;5046496;28;20132;-44
2020/12/01 13:03:39;;;;;;;27.75;4.63;;;10.30;91.70;;;;;;5045905;28;20037;-45
2020/12/01 13:06:04;;;;;;;22.85;3.90;;;10.40;91.30;;;;;;5046822;28;20025;-44
2020/12/01 13:08:30;;;;;;;22.35;3.90;;;10.30;90.50;;;;;;5048579;28;20074;-45
2020/12/01 13:10:55;;;;;;;25.13;4.72;;;10.30;90.50;;;;;;5045758;28;20162;-44
2020/12/01 13:13:21;;;;;;;23.80;3.70;;;10.30;90.80;;;;;;5046571;28;20108;-45
2020/12/01 13:15:46;;;;;;;17.55;3.25;;;10.30;90.90;;;;;;5046949;28;20025;-44
2020/12/01 13:18:12;;;;;;;19.20;3.72;;;10.20;90.90;;;;;;5048958;28;20082;-45
2020/12/01 13:20:37;;;;;;;32.15;4.70;;;10.30;91.00;;;;;;5050938;28;20790;-45
2020/12/01 13:23:03;;;;;;;19.10;3.50;;;10.30;90.60;;;;;;5050907;28;20542;-44
2020/12/01 13:25:29;;;;;;;18.02;2.88;;;10.30;90.60;;;;;;5049698;28;20364;-45
2020/12/01 13:27:54;;;;;;;23.90;3.70;;;10.30;90.50;;;;;;5049929;28;20052;-44
2020/12/01 13:30:22;;;;;;;20.55;3.10;;;10.30;90.80;;;;;;5049022;28;20029;-44
2020/12/01 13:32:48;;;;;;;19.98;4.38;;;10.20;90.50;;;;;;5045548;28;20070;-44
2020/12/01 13:35:14;;;;;;;19.88;4.00;;;10.20;90.60;;;;;;5048889;28;20100;-43
2020/12/01 13:37:42;;;;;;;24.70;4.50;;;10.20;90.60;;;;;;5048644;28;20017;-43
2020/12/01 13:40:08;;;;;;;25.08;4.15;;;10.30;90.40;;;;;;5045378;28;20381;-44
2020/12/01 13:42:34;;;;;;;23.10;3.67;;;10.30;90.30;;;;;;5048860;28;20035;-45
2020/12/01 13:44:59;;;;;;;17.35;3.33;;;10.30;90.00;;;;;;5049171;28;20028;-45
2020/12/01 13:47:25;;;;;;;17.25;2.97;;;10.40;90.30;;;;;;5049694;28;20020;-45
2020/12/01 13:49:50;;;;;;;16.00;3.58;;;10.40;90.50;;;;;;5047731;28;20025;-45
2020/12/01 13:52:16;;;;;;;16.70;2.88;;;10.40;90.50;;;;;;5044589;28;20166;-45